Time;durP1;ratioP1;P1;durP2;ratioP2;P2;SDS_P1;SDS_P2;PMS_P1;PMS_P2;Temp;Humidity;BMP_temperature;BMP_pressure;BME280_temperature;BME280_humidity;BME280_pressure;Samples;Min_cycle;Max_cycle;Signal;HPM_P1;HPM_P2
2023/02/16 02:13:17;;;;;;;;;;;;;;;0.33;81.60;101008.47;1070125;54;20030;31
2023/02/16 03:37:32;;;;;;;;;;;;;;;0.42;80.70;100994.13;1066592;54;20793;31
2023/02/16 05:31:50;;;;;;;;;;;;;;;-0.04;80.38;101001.88;1087042;54;21862;-77
2023/02/16 05:32:52;;;;;;;;;;;;;;;-0.04;80.10;101012.41;1086931;54;19967;-78
2023/02/16 05:33:56;;;;;;;;;;;;;;;-0.02;80.32;101010.59;1088217;46;19957;-78
2023/02/16 05:34:59;;;;;;;;;;;;;;;-0.05;79.94;101011.53;1087745;54;20355;-78
2023/02/16 05:36:08;;;;;;;;;;;;;;;-0.02;80.24;101016.69;1087754;54;19949;-80
2023/02/16 05:37:12;;;;;;;;;;;;;;;0.01;80.03;101010.47;1088266;46;19939;-78
2023/02/16 05:38:19;;;;;;;;;;;;;;;0.01;79.96;101015.72;1088421;46;19983;-78
2023/02/16 05:39:23;;;;;;;;;;;;;;;0.04;80.19;101017.41;1087798;54;19939;-78
2023/02/16 05:40:32;;;;;;;;;;;;;;;0.02;79.66;101014.81;1087712;54;19942;-77
2023/02/16 05:41:37;;;;;;;;;;;;;;;-0.02;79.79;101019.31;1087868;54;19965;-78
2023/02/16 05:42:51;;;;;;;;;;;;;;;-0.06;79.86;101014.22;1087823;54;19955;-77
2023/02/16 05:43:57;;;;;;;;;;;;;;;-0.05;80.32;101021.19;1087382;54;20673;-79
2023/02/16 05:45:08;;;;;;;;;;;;;;;-0.05;80.29;101021.19;1089946;39;20597;-78
2023/02/16 05:46:11;;;;;;;;;;;;;;;-0.06;80.19;101024.72;1087642;54;19958;-80
2023/02/16 05:47:21;;;;;;;;;;;;;;;-0.05;80.11;101031.72;1087748;54;19949;-77
2023/02/16 05:48:25;;;;;;;;;;;;;;;-0.06;80.03;101027.38;1087709;54;19938;-77
2023/02/16 05:49:33;;;;;;;;;;;;;;;-0.05;80.28;101023.81;1089175;46;19946;-78
2023/02/16 05:50:36;;;;;;;;;;;;;;;-0.06;80.05;101017.72;1087482;54;19954;-78
2023/02/16 05:51:44;;;;;;;;;;;;;;;-0.03;80.10;101024.66;1087678;54;19942;-78
2023/02/16 05:52:48;;;;;;;;;;;;;;;-0.06;79.89;101020.34;1087624;54;19942;-77
2023/02/16 05:53:59;;;;;;;;;;;;;;;-0.04;80.27;101030.81;1087682;54;20923;-77
2023/02/16 05:55:09;;;;;;;;;;;;;;;-0.03;80.11;101033.38;1087696;54;19943;-78
2023/02/16 05:56:16;;;;;;;;;;;;;;;-0.01;80.31;101036.81;1087739;54;19967;-78
2023/02/16 05:57:25;;;;;;;;;;;;;;;-0.02;79.76;101031.63;1087737;54;19990;-78
2023/02/16 05:58:28;;;;;;;;;;;;;;;-0.03;79.61;101029.91;1088649;46;19942;-78
2023/02/16 05:59:34;;;;;;;;;;;;;;;-0.06;79.79;101030.00;1087380;54;19943;-77
2023/02/16 06:00:37;;;;;;;;;;;;;;;-0.12;79.53;101031.06;1087380;54;19998;-77
2023/02/16 06:01:41;;;;;;;;;;;;;;;-0.11;79.93;101031.94;1087778;54;19943;-79
2023/02/16 06:02:44;;;;;;;;;;;;;;;-0.11;80.28;101027.53;1087739;54;19943;-78
2023/02/16 06:03:48;;;;;;;;;;;;;;;-0.14;80.10;101030.25;1087694;54;19943;-78
2023/02/16 06:04:52;;;;;;;;;;;;;;;-0.11;80.18;101034.56;1087751;54;20002;-77
2023/02/16 06:05:54;;;;;;;;;;;;;;;-0.14;80.09;101030.25;1088610;39;20507;-79
2023/02/16 06:06:58;;;;;;;;;;;;;;;-0.17;80.13;101039.09;1087699;54;19942;-78
2023/02/16 06:07:59;;;;;;;;;;;;;;;-0.16;80.17;101040.81;1087762;54;19942;-77
2023/02/16 06:09:03;;;;;;;;;;;;;;;-0.10;80.14;101045.03;1087773;54;19942;-79
2023/02/16 06:10:05;;;;;;;;;;;;;;;-0.06;80.12;101037.88;1087789;54;19974;-78
2023/02/16 06:11:34;;;;;;;;;;;;;;;-0.03;80.00;101041.25;1087704;54;19946;-78
2023/02/16 06:12:33;;;;;;;;;;;;;;;-0.02;79.83;101047.41;1087779;54;19949;-77
2023/02/16 06:13:40;;;;;;;;;;;;;;;0.01;79.66;101046.44;1087747;54;19970;-78
2023/02/16 06:15:09;;;;;;;;;;;;;;;0.03;79.59;101044.59;1087783;54;19973;-77
2023/02/16 06:16:10;;;;;;;;;;;;;;;-0.04;79.26;101046.59;1088271;46;19966;-79
2023/02/16 06:17:14;;;;;;;;;;;;;;;-0.04;79.58;101052.69;1088330;46;19946;-79
2023/02/16 06:18:18;;;;;;;;;;;;;;;-0.03;79.39;101048.31;1087982;46;19967;-77
2023/02/16 06:19:22;;;;;;;;;;;;;;;0.01;79.46;101049.06;1088336;39;20616;-77
2023/02/16 06:20:23;;;;;;;;;;;;;;;0.01;79.46;101051.69;1087888;54;19926;-77
2023/02/16 06:21:27;;;;;;;;;;;;;;;0.05;79.56;101048.06;1088183;54;20650;-76
2023/02/16 06:22:28;;;;;;;;;;;;;;;0.07;79.39;101047.06;1088052;54;19941;-79
2023/02/16 06:23:32;;;;;;;;;;;;;;;0.07;79.09;101044.44;1088527;46;19954;-78
2023/02/16 06:24:36;;;;;;;;;;;;;;;0.09;79.36;101045.25;1090069;46;19923;-78
2023/02/16 06:25:37;;;;;;;;;;;;;;;0.11;79.09;101045.19;1091008;46;19943;-78
2023/02/16 06:26:44;;;;;;;;;;;;;;;0.11;79.18;101040.78;1087983;54;19947;-80
2023/02/16 06:27:45;;;;;;;;;;;;;;;0.10;78.85;101041.69;1090268;46;19946;-77
2023/02/16 06:28:48;;;;;;;;;;;;;;;0.09;78.80;101042.63;1088298;46;19935;-79
2023/02/16 06:29:49;;;;;;;;;;;;;;;0.05;78.48;101037.53;1088135;46;19962;-79
2023/02/16 06:30:54;;;;;;;;;;;;;;;0.04;78.93;101047.19;1087813;54;19950;-78
2023/02/16 06:31:55;;;;;;;;;;;;;;;0.06;79.26;101044.47;1088763;46;19943;-79
2023/02/16 06:32:59;;;;;;;;;;;;;;;0.05;79.07;101038.38;1091499;46;19945;-78
2023/02/16 06:34:03;;;;;;;;;;;;;;;0.05;79.03;101042.78;1088881;47;19939;-77
2023/02/16 06:35:07;;;;;;;;;;;;;;;0.06;79.02;101044.47;1088108;54;19946;-79
2023/02/16 06:36:08;;;;;;;;;;;;;;;0.04;78.81;101052.44;1088288;46;19933;-78
2023/02/16 06:37:12;;;;;;;;;;;;;;;0.02;79.03;101043.72;1088751;46;19938;-78
2023/02/16 06:38:13;;;;;;;;;;;;;;;0.03;79.05;101048.09;1089183;46;19943;-77
2023/02/16 06:39:18;;;;;;;;;;;;;;;0.04;79.15;101047.19;1087940;54;19942;-78
2023/02/16 06:40:19;;;;;;;;;;;;;;;0.03;78.77;101045.44;1087895;54;21419;-78
2023/02/16 06:41:34;;;;;;;;;;;;;;;-0.01;78.68;101054.38;1089227;46;19998;-78
2023/02/16 06:42:35;;;;;;;;;;;;;;;-0.03;78.92;101043.03;1087756;54;19943;-78
2023/02/16 06:43:39;;;;;;;;;;;;;;;-0.08;79.10;101040.56;1087629;54;19987;-78
2023/02/16 06:44:43;;;;;;;;;;;;;;;-0.06;79.31;101045.78;1087756;47;19942;-77
2023/02/16 06:45:47;;;;;;;;;;;;;;;-0.08;79.37;101047.59;1087645;54;19950;-78
2023/02/16 06:46:48;;;;;;;;;;;;;;;-0.09;79.05;101045.84;1087692;54;19942;-77
2023/02/16 06:47:51;;;;;;;;;;;;;;;-0.17;79.28;101046.97;1087696;54;19942;-77
2023/02/16 06:48:53;;;;;;;;;;;;;;;-0.18;79.98;101050.53;1087589;54;19934;-77
2023/02/16 06:50:00;;;;;;;;;;;;;;;-0.19;79.75;101043.53;1087689;54;19939;-79
2023/02/16 06:51:02;;;;;;;;;;;;;;;-0.17;79.46;101043.50;1087634;54;19942;-77
2023/02/16 06:52:06;;;;;;;;;;;;;;;-0.16;79.62;101048.72;1087697;54;19926;-79
2023/02/16 06:53:07;;;;;;;;;;;;;;;-0.14;79.60;101053.06;1087699;54;19938;-77
2023/02/16 06:54:11;;;;;;;;;;;;;;;-0.13;79.42;101058.25;1090213;39;20632;-79
2023/02/16 06:55:12;;;;;;;;;;;;;;;-0.10;79.50;101057.31;1087647;54;19943;-77
2023/02/16 06:56:16;;;;;;;;;;;;;;;-0.10;79.13;101052.06;1087625;54;19943;-79
2023/02/16 06:57:17;;;;;;;;;;;;;;;-0.14;79.21;101053.06;1087653;54;19927;-77
2023/02/16 06:58:21;;;;;;;;;;;;;;;-0.12;79.12;101045.97;1087710;54;19954;-77
2023/02/16 06:59:25;;;;;;;;;;;;;;;-0.13;78.93;101057.41;1087635;54;19967;-78
2023/02/16 07:00:26;;;;;;;;;;;;;;;-0.18;78.79;101061.03;1087550;54;19946;-79
2023/02/16 07:01:30;;;;;;;;;;;;;;;-0.18;78.82;101063.66;1087984;46;19927;-78
2023/02/16 07:02:31;;;;;;;;;;;;;;;-0.17;78.87;101070.63;1087738;54;19943;-77
2023/02/16 07:03:35;;;;;;;;;;;;;;;-0.19;78.74;101067.19;1087657;54;19941;-79
2023/02/16 07:04:39;;;;;;;;;;;;;;;-0.17;78.96;101061.91;1087664;54;19954;-78
2023/02/16 07:05:43;;;;;;;;;;;;;;;-0.17;79.00;101070.63;1087560;54;19950;-79
2023/02/16 07:06:47;;;;;;;;;;;;;;;-0.21;78.62;101066.41;1087750;47;19938;-78
2023/02/16 07:07:48;;;;;;;;;;;;;;;-0.19;79.29;101067.19;1088045;39;20590;-78
2023/02/16 07:08:52;;;;;;;;;;;;;;;-0.17;79.13;101077.69;1087647;54;19966;-78
2023/02/16 07:09:53;;;;;;;;;;;;;;;-0.16;79.04;101064.47;1087627;54;19942;-78
2023/02/16 07:10:57;;;;;;;;;;;;;;;-0.19;79.08;101072.47;1087535;54;19942;-78
2023/02/16 07:11:58;;;;;;;;;;;;;;;-0.21;79.20;101079.56;1087552;54;19942;-78
2023/02/16 07:13:02;;;;;;;;;;;;;;;-0.19;79.07;101072.47;1087612;54;19939;-78
2023/02/16 07:14:05;;;;;;;;;;;;;;;-0.20;79.04;101076.03;1087613;54;19934;-78
2023/02/16 07:15:07;;;;;;;;;;;;;;;-0.14;79.38;101071.47;1087635;54;19942;-79
2023/02/16 07:16:11;;;;;;;;;;;;;;;-0.16;79.17;101063.63;1087543;54;20603;-77
2023/02/16 07:17:12;;;;;;;;;;;;;;;-0.14;79.23;101064.41;1087554;54;19962;-78
2023/02/16 07:18:16;;;;;;;;;;;;;;;-0.14;79.06;101066.19;1087601;54;19954;-77
2023/02/16 07:19:17;;;;;;;;;;;;;;;-0.11;79.11;101058.22;1087606;54;19939;-78
2023/02/16 07:20:21;;;;;;;;;;;;;;;-0.11;78.93;101058.22;1087535;54;19943;-78
2023/02/16 07:21:25;;;;;;;;;;;;;;;-0.19;78.49;101069.81;1087575;54;19994;-79
2023/02/16 07:22:29;;;;;;;;;;;;;;;-0.40;79.29;101070.56;1087672;54;19946;-78
2023/02/16 07:23:30;;;;;;;;;;;;;;;-0.49;79.83;101063.81;1087601;54;19946;-78
2023/02/16 07:24:34;;;;;;;;;;;;;;;-0.55;80.03;101074.53;1087678;54;20665;-78
2023/02/16 07:25:35;;;;;;;;;;;;;;;-0.53;80.21;101070.94;1087717;54;19949;-78
2023/02/16 07:26:40;;;;;;;;;;;;;;;-0.44;80.26;101069.78;1087780;54;19927;-78
2023/02/16 07:27:42;;;;;;;;;;;;;;;-0.55;79.91;101067.47;1087645;54;19998;-79
2023/02/16 07:28:46;;;;;;;;;;;;;;;-0.67;80.57;101075.78;1087597;54;19942;-78
2023/02/16 07:29:47;;;;;;;;;;;;;;;-0.75;81.10;101073.38;1087656;54;19950;-78
2023/02/16 07:30:51;;;;;;;;;;;;;;;-0.76;81.28;101073.44;1087516;54;20704;-79
2023/02/16 07:31:53;;;;;;;;;;;;;;;-0.76;81.25;101081.31;1088972;47;19943;-77
2023/02/16 07:32:57;;;;;;;;;;;;;;;-0.80;81.15;101091.91;1087607;54;19946;-78
2023/02/16 07:33:58;;;;;;;;;;;;;;;-0.77;81.04;101079.59;1087581;54;19934;-78
2023/02/16 07:35:01;;;;;;;;;;;;;;;-0.83;80.79;101081.47;1087549;54;19942;-78
2023/02/16 07:36:03;;;;;;;;;;;;;;;-0.88;81.19;101080.75;1087537;54;20652;-78
2023/02/16 07:37:09;;;;;;;;;;;;;;;-0.84;81.38;101084.16;1087570;54;19943;-78
